Time;durP1;ratioP1;P1;durP2;ratioP2;P2;SDS_P1;SDS_P2;PMS_P1;PMS_P2;Temp;Humidity;BMP_temperature;BMP_pressure;BME280_temperature;BME280_humidity;BME280_pressure;Samples;Min_cycle;Max_cycle;Signal;HPM_P1;HPM_P2
2024/03/16 00:00:34;;;;;;;;;;;;;;;6.25;100.00;99420.53;4992925;28;19918;-83
2024/03/16 00:03:00;;;;;;;;;;;;;;;6.29;100.00;99423.03;4993784;28;20366;-81
2024/03/16 00:05:27;;;;;;;;;;;;;;;6.31;100.00;99418.56;4994122;28;20446;-82
2024/03/16 00:07:53;;;;;;;;;;;;;;;6.30;100.00;99423.88;4976356;28;19934;-81
2024/03/16 00:10:19;;;;;;;;;;;;;;;6.32;100.00;99430.84;4993861;28;19929;-82
2024/03/16 00:12:44;;;;;;;;;;;;;;;6.35;100.00;99424.59;4994004;28;19914;-81
2024/03/16 00:15:09;;;;;;;;;;;;;;;6.35;100.00;99428.09;4975266;28;19922;-84
2024/03/16 00:17:35;;;;;;;;;;;;;;;6.36;100.00;99424.53;4993628;28;19924;-80
2024/03/16 00:20:03;;;;;;;;;;;;;;;6.38;100.00;99429.75;4976017;28;19933;-83
2024/03/16 00:22:28;;;;;;;;;;;;;;;6.42;100.00;99422.66;4993612;28;20005;-82
2024/03/16 00:24:53;;;;;;;;;;;;;;;6.46;100.00;99434.78;4993409;28;20005;-86
2024/03/16 00:27:19;;;;;;;;;;;;;;;6.40;100.00;99433.22;4993586;28;20377;-80
2024/03/16 00:29:44;;;;;;;;;;;;;;;6.40;100.00;99429.72;4992168;28;19922;-81
2024/03/16 00:32:10;;;;;;;;;;;;;;;6.47;100.00;99420.72;4993422;28;20333;-80
2024/03/16 00:34:35;;;;;;;;;;;;;;;6.39;100.00;99420.97;4976177;28;19922;-82
2024/03/16 00:37:04;;;;;;;;;;;;;;;6.43;100.00;99427.00;4993025;28;19914;-81
2024/03/16 00:39:29;;;;;;;;;;;;;;;6.39;100.00;99420.13;4993618;28;19926;-87
2024/03/16 00:41:57;;;;;;;;;;;;;;;6.46;100.00;99426.91;4993025;28;20021;-84
2024/03/16 00:44:22;;;;;;;;;;;;;;;6.47;100.00;99424.22;4993019;28;19917;-86
2024/03/16 00:46:47;;;;;;;;;;;;;;;6.37;100.00;99417.53;4992100;28;19928;-82
2024/03/16 00:49:12;;;;;;;;;;;;;;;6.42;100.00;99426.13;4993219;28;20340;-82
2024/03/16 00:51:38;;;;;;;;;;;;;;;6.42;100.00;99425.28;4993437;28;20122;-83
2024/03/16 00:54:03;;;;;;;;;;;;;;;6.38;100.00;99419.25;4992702;28;19921;-81
2024/03/16 00:56:28;;;;;;;;;;;;;;;6.40;100.00;99421.81;4993144;28;20377;-82
2024/03/16 00:58:54;;;;;;;;;;;;;;;6.42;100.00;99417.41;4975626;28;19928;-82
2024/03/16 01:01:19;;;;;;;;;;;;;;;6.37;100.00;99417.53;4991991;28;19922;-81
2024/03/16 01:03:45;;;;;;;;;;;;;;;6.38;100.00;99415.75;4993073;28;19957;-83
2024/03/16 01:06:10;;;;;;;;;;;;;;;6.39;100.00;99417.50;4992424;28;20389;-84
2024/03/16 06:23:14;;;;;;;;;;;;;;;6.86;100.00;99620.50;4958421;28;20021;-80
2024/03/16 06:25:50;;;;;;;;;;;;;;;6.83;100.00;99616.19;4969758;28;20351;-81
2024/03/16 06:28:21;;;;;;;;;;;;;;;6.84;100.00;99632.84;4965917;28;19922;-80
2024/03/16 06:30:49;;;;;;;;;;;;;;;6.78;100.00;99625.13;4962637;28;19925;-80
2024/03/16 06:33:26;;;;;;;;;;;;;;;6.82;100.00;99632.03;4960693;28;19934;-80
2024/03/16 06:35:52;;;;;;;;;;;;;;;6.87;100.00;99632.75;4970980;28;20020;-80
2024/03/16 06:38:18;;;;;;;;;;;;;;;6.86;100.00;99631.91;4960943;28;19918;-81
2024/03/16 06:40:43;;;;;;;;;;;;;;;6.90;100.00;99645.84;4971858;28;20392;-80
2024/03/16 06:43:09;;;;;;;;;;;;;;;6.92;100.00;99659.81;4972807;28;19922;-80
2024/03/16 06:45:34;;;;;;;;;;;;;;;6.93;100.00;99653.66;4972848;28;19928;-79
2024/03/16 06:47:59;;;;;;;;;;;;;;;6.94;100.00;99657.16;4958980;28;19918;-80
2024/03/16 06:50:24;;;;;;;;;;;;;;;6.99;100.00;99658.75;4960994;28;19969;-80
2024/03/16 06:52:49;;;;;;;;;;;;;;;7.00;100.00;99664.88;4965208;28;19926;-81
2024/03/16 06:55:17;;;;;;;;;;;;;;;6.96;100.00;99676.41;4965747;28;20430;-79
2024/03/16 06:57:42;;;;;;;;;;;;;;;6.95;100.00;99678.16;4956815;28;19918;-79
2024/03/16 07:00:09;;;;;;;;;;;;;;;6.92;100.00;99678.25;4954976;28;19977;-80
2024/03/16 07:02:34;;;;;;;;;;;;;;;6.95;100.00;99672.91;4974468;28;19922;-80
2024/03/16 07:05:00;;;;;;;;;;;;;;;6.99;100.00;99673.66;4972767;28;19918;-80
2024/03/16 07:07:25;;;;;;;;;;;;;;;6.95;100.00;99680.81;4973213;28;19925;-82
2024/03/16 07:09:52;;;;;;;;;;;;;;;6.95;100.00;99686.06;4974413;28;19919;-82
2024/03/16 07:12:17;;;;;;;;;;;;;;;6.97;100.00;99691.31;4974671;28;20009;-86
2024/03/16 07:14:43;;;;;;;;;;;;;;;6.97;100.00;99686.88;4975010;28;20016;-83
2024/03/16 07:17:08;;;;;;;;;;;;;;;6.95;100.00;99688.72;4975166;28;19945;-83
2024/03/16 07:19:33;;;;;;;;;;;;;;;6.96;100.00;99695.72;4956904;28;20020;-83
2024/03/16 07:21:59;;;;;;;;;;;;;;;6.99;100.00;99700.00;4973730;28;19922;-83
2024/03/16 07:24:24;;;;;;;;;;;;;;;7.01;100.00;99701.69;4975250;28;19933;-82
2024/03/16 07:26:50;;;;;;;;;;;;;;;7.00;100.00;99712.28;4975383;28;19990;-78
2024/03/16 07:29:15;;;;;;;;;;;;;;;7.01;100.00;99712.25;4975788;28;20242;-80
2024/03/16 07:31:40;;;;;;;;;;;;;;;7.02;100.00;99719.25;4975598;28;19919;-80
2024/03/16 07:34:05;;;;;;;;;;;;;;;7.04;100.00;99720.06;4974338;28;19929;-78
2024/03/16 07:36:31;;;;;;;;;;;;;;;7.09;100.00;99733.09;4975426;28;19918;-78
2024/03/16 07:38:57;;;;;;;;;;;;;;;7.05;100.00;99736.72;4975141;28;20004;-78
2024/03/16 07:41:23;;;;;;;;;;;;;;;7.09;100.00;99736.59;4975366;28;19941;-78
2024/03/16 07:43:48;;;;;;;;;;;;;;;7.08;100.00;99742.78;4974514;28;19925;-77
2024/03/16 07:46:14;;;;;;;;;;;;;;;7.13;100.00;99749.69;4975224;28;19922;-80
2024/03/16 07:48:39;;;;;;;;;;;;;;;7.17;100.00;99748.69;4973959;28;19973;-79
2024/03/16 07:51:04;;;;;;;;;;;;;;;7.15;100.00;99742.59;4957616;28;19924;-78
2024/03/16 07:53:31;;;;;;;;;;;;;;;7.17;100.00;99761.88;4957690;28;19961;-78
2024/03/16 07:55:58;;;;;;;;;;;;;;;7.15;100.00;99758.38;4975027;28;19918;-78
2024/03/16 07:58:23;;;;;;;;;;;;;;;7.17;100.00;99764.50;4975073;28;20377;-79
2024/03/16 08:00:48;;;;;;;;;;;;;;;7.17;100.00;99768.00;4957488;28;19918;-79
2024/03/16 08:03:13;;;;;;;;;;;;;;;7.18;100.00;99763.56;4974801;28;20388;-78
2024/03/16 08:05:39;;;;;;;;;;;;;;;7.16;100.00;99778.56;4973595;28;20009;-78
2024/03/16 08:08:04;;;;;;;;;;;;;;;7.12;100.00;99775.16;4973424;28;20025;-77
2024/03/16 08:10:29;;;;;;;;;;;;;;;7.14;100.00;99783.03;4974814;28;20002;-78
2024/03/16 08:57:04;;;;;;;;;;;;;;;7.15;100.00;99824.28;5182360;23;19926;-82
2024/03/16 08:59:29;;;;;;;;;;;;;;;7.12;100.00;99827.88;4993220;28;19926;-78
2024/03/16 09:01:54;;;;;;;;;;;;;;;7.14;100.00;99836.59;4993500;28;19922;-79
2024/03/16 09:04:20;;;;;;;;;;;;;;;7.15;100.00;99842.72;4993051;28;20307;-83
2024/03/16 09:06:45;;;;;;;;;;;;;;;7.14;100.00;99838.38;4993367;28;19944;-81
2024/03/16 09:09:11;;;;;;;;;;;;;;;7.14;100.00;99847.13;4992007;28;19917;-79
2024/03/16 09:11:39;;;;;;;;;;;;;;;7.18;100.00;99853.16;4991936;28;20467;-81
2024/03/16 09:14:07;;;;;;;;;;;;;;;7.11;100.00;99854.25;4991024;28;20005;-80
2024/03/16 09:16:40;;;;;;;;;;;;;;;7.13;100.00;99860.34;4992682;28;20403;-78
2024/03/16 09:19:06;;;;;;;;;;;;;;;7.15;100.00;99855.88;4992158;28;20300;-79
2024/03/16 09:21:31;;;;;;;;;;;;;;;7.15;100.00;99867.31;4992957;28;19922;-79
2024/03/16 09:23:57;;;;;;;;;;;;;;;7.10;100.00;99858.69;4991748;28;19921;-82
2024/03/16 09:26:22;;;;;;;;;;;;;;;7.16;100.00;99860.25;4991440;28;20316;-83
2024/03/16 09:28:48;;;;;;;;;;;;;;;7.13;100.00;99866.47;4993095;28;19922;-83
2024/03/16 09:31:13;;;;;;;;;;;;;;;7.09;100.00;99860.44;4992860;28;20013;-82
2024/03/16 09:33:38;;;;;;;;;;;;;;;7.12;100.00;99869.19;4992747;28;19934;-83
2024/03/16 09:36:06;;;;;;;;;;;;;;;7.12;100.00;99869.19;4992993;28;19918;-83
2024/03/16 09:38:32;;;;;;;;;;;;;;;7.20;100.00;99875.09;4992684;28;19917;-82
2024/03/16 09:40:57;;;;;;;;;;;;;;;7.21;100.00;99879.44;4990740;28;19922;-84
2024/03/16 09:43:22;;;;;;;;;;;;;;;7.19;100.00;99881.25;4992706;28;20367;-83
2024/03/16 09:45:48;;;;;;;;;;;;;;;7.14;100.00;99884.03;4991506;28;19914;-83
2024/03/16 09:48:13;;;;;;;;;;;;;;;7.16;100.00;99882.19;4992559;28;19972;-85
2024/03/16 09:50:49;;;;;;;;;;;;;;;7.14;100.00;99883.16;4992640;28;19922;-81
2024/03/16 09:53:23;;;;;;;;;;;;;;;7.19;100.00;99894.44;4992708;28;19985;-84
2024/03/16 09:55:50;;;;;;;;;;;;;;;7.18;100.00;99896.22;4990687;28;19918;-78
2024/03/16 09:58:17;;;;;;;;;;;;;;;7.20;100.00;99890.91;5010606;28;20024;-79
2024/03/16 10:00:43;;;;;;;;;;;;;;;7.22;100.00;99891.72;4994320;28;19921;-79
2024/03/16 10:03:10;;;;;;;;;;;;;;;7.20;100.00;99901.47;4995464;28;19975;-84
2024/03/16 10:05:35;;;;;;;;;;;;;;;7.21;100.00;99895.25;5011926;28;19979;-81
2024/03/16 10:08:00;;;;;;;;;;;;;;;7.20;100.00;99897.03;5012206;28;19921;-83
2024/03/16 10:10:26;;;;;;;;;;;;;;;7.18;100.00;99898.84;5010746;28;19953;-79
2024/03/16 10:13:02;;;;;;;;;;;;;;;7.21;100.00;99895.25;5012220;28;19935;-80
2024/03/16 10:15:27;;;;;;;;;;;;;;;7.25;100.00;99902.19;5011897;28;19971;-79
2024/03/16 10:17:53;;;;;;;;;;;;;;;7.22;100.00;99903.13;5012110;28;19922;-85
2024/03/16 10:20:21;;;;;;;;;;;;;;;7.26;100.00;99903.94;4978101;28;19951;-83
2024/03/16 10:22:46;;;;;;;;;;;;;;;7.23;100.00;99904.00;5012138;28;19922;-82
2024/03/16 10:25:12;;;;;;;;;;;;;;;7.24;100.00;99916.25;5010782;28;19975;-79
2024/03/16 10:27:40;;;;;;;;;;;;;;;7.25;100.00;99924.13;5013376;28;19921;-80
2024/03/16 10:30:10;;;;;;;;;;;;;;;7.25;100.00;99933.81;5015526;28;20327;-84
2024/03/16 10:32:37;;;;;;;;;;;;;;;7.27;100.00;99921.44;4998530;28;19976;-85
2024/03/16 10:35:06;;;;;;;;;;;;;;;7.24;100.00;99930.31;4998060;28;19924;-85
2024/03/16 10:37:32;;;;;;;;;;;;;;;7.28;100.00;99926.69;5014583;28;19917;-82
2024/03/16 10:39:59;;;;;;;;;;;;;;;7.26;100.00;99930.28;5014640;28;19929;-82
2024/03/16 10:42:26;;;;;;;;;;;;;;;7.28;100.00;99942.50;4997477;28;19928;-80
2024/03/16 10:44:52;;;;;;;;;;;;;;;7.31;100.00;99946.84;5016380;28;19920;-82
2024/03/16 10:47:18;;;;;;;;;;;;;;;7.30;100.00;99937.19;5015669;28;19967;-78
2024/03/16 10:49:43;;;;;;;;;;;;;;;7.29;100.00;99940.72;5015339;28;19929;-83
2024/03/16 10:52:10;;;;;;;;;;;;;;;7.35;100.00;99945.81;5015311;28;19918;-85
2024/03/16 10:54:35;;;;;;;;;;;;;;;7.33;100.00;99944.16;5015249;28;20390;-78
2024/03/16 10:57:01;;;;;;;;;;;;;;;7.34;100.00;99946.75;5013690;28;19921;-79
2024/03/16 10:59:53;;;;;;;;;;;;;;;7.31;100.00;99938.94;5014971;28;20356;-80
2024/03/16 11:02:18;;;;;;;;;;;;;;;7.28;100.00;99949.53;5011962;28;19932;-77
2024/03/16 11:04:52;;;;;;;;;;;;;;;7.36;100.00;99951.97;4998263;28;19917;-81
2024/03/16 11:07:19;;;;;;;;;;;;;;;7.37;100.00;99954.56;4994500;28;20028;-80
2024/03/16 11:09:44;;;;;;;;;;;;;;;7.37;100.00;99954.56;4996618;28;19923;-85
2024/03/16 11:12:28;;;;;;;;;;;;;;;7.37;100.00;99964.25;5013732;28;19917;-82
2024/03/16 11:15:13;;;;;;;;;;;;;;;7.34;100.00;99964.31;5014708;28;20216;-82
2024/03/16 11:17:40;;;;;;;;;;;;;;;7.37;100.00;99990.59;4996254;28;20618;-82
2024/03/16 11:20:33;;;;;;;;;;;;;;;7.38;100.00;100001.09;4997152;28;19932;-80
2024/03/16 11:23:00;;;;;;;;;;;;;;;7.37;100.00;100017.84;4996810;28;19960;-81
2024/03/16 11:25:26;;;;;;;;;;;;;;;7.31;100.00;100025.03;5012927;28;19921;-85
2024/03/16 11:27:51;;;;;;;;;;;;;;;7.26;100.00;100026.03;4996919;28;19929;-79
2024/03/16 11:30:18;;;;;;;;;;;;;;;7.27;100.00;100024.25;5014493;28;19927;-79
2024/03/16 11:32:43;;;;;;;;;;;;;;;7.26;100.00;100025.16;5014788;28;20296;-80
2024/03/16 11:35:12;;;;;;;;;;;;;;;7.25;100.00;100033.97;4997056;28;19970;-81
2024/03/16 11:37:37;;;;;;;;;;;;;;;7.24;100.00;100038.38;5013313;28;20260;-79
2024/03/16 11:40:03;;;;;;;;;;;;;;;7.28;100.00;100039.16;5013026;28;20020;-79
2024/03/16 11:42:29;;;;;;;;;;;;;;;7.29;100.00;100038.25;5014326;28;20023;-81
2024/03/16 11:44:55;;;;;;;;;;;;;;;7.24;100.00;100041.03;5014049;28;19913;-81
2024/03/16 11:47:20;;;;;;;;;;;;;;;7.21;100.00;100042.84;5014222;28;19925;-80
2024/03/16 11:49:46;;;;;;;;;;;;;;;7.24;100.00;100042.78;5014025;28;20063;-81
2024/03/16 11:52:11;;;;;;;;;;;;;;;7.26;100.00;100046.25;5014157;28;20320;-80
2024/03/16 11:54:36;;;;;;;;;;;;;;;7.25;100.00;100050.63;5014091;28;19917;-84
2024/03/16 11:57:02;;;;;;;;;;;;;;;7.28;100.00;100052.34;5012676;28;19925;-82
2024/03/16 11:59:28;;;;;;;;;;;;;;;7.24;100.00;100055.94;4996264;28;19921;-82
2024/03/16 12:01:54;;;;;;;;;;;;;;;7.28;100.00;100054.97;5013953;28;20431;-81
2024/03/16 12:04:24;;;;;;;;;;;;;;;7.25;100.00;100053.28;5013934;28;19917;-83
2024/03/16 12:06:52;;;;;;;;;;;;;;;7.22;100.00;100053.34;4996239;28;19927;-89
2024/03/16 12:09:30;;;;;;;;;;;;;;;7.27;100.00;100051.50;5013745;28;19921;-85
2024/03/16 12:11:57;;;;;;;;;;;;;;;7.26;100.00;100051.53;5013111;28;19924;-81
2024/03/16 12:14:22;;;;;;;;;;;;;;;7.22;100.00;100049.84;4995998;28;20284;-80
2024/03/16 12:16:48;;;;;;;;;;;;;;;7.32;100.00;100045.22;5013581;28;19918;-80
2024/03/16 12:19:14;;;;;;;;;;;;;;;7.26;100.00;100046.25;5013465;28;20292;-80
2024/03/16 12:21:46;;;;;;;;;;;;;;;7.28;100.00;100040.03;5012597;28;19926;-81
2024/03/16 12:24:13;;;;;;;;;;;;;;;7.30;100.00;100047.03;5012978;28;19921;-91
2024/03/16 12:26:43;;;;;;;;;;;;;;;7.30;100.00;100039.13;5011802;28;19980;-85
2024/03/16 12:29:09;;;;;;;;;;;;;;;7.30;100.00;100036.50;4995715;28;20073;-87
2024/03/16 12:31:36;;;;;;;;;;;;;;;7.26;100.00;100040.97;5013399;28;20012;-90
2024/03/16 12:34:01;;;;;;;;;;;;;;;7.23;100.00;100038.44;5012630;28;19921;-87
2024/03/16 12:36:26;;;;;;;;;;;;;;;7.24;100.00;100045.41;5013251;28;19918;-86
2024/03/16 12:38:52;;;;;;;;;;;;;;;7.28;100.00;100044.44;4995599;28;19961;-83
2024/03/16 12:41:17;;;;;;;;;;;;;;;7.26;100.00;100038.34;5011624;28;20295;-81
2024/03/16 12:43:42;;;;;;;;;;;;;;;7.26;100.00;100046.25;5013169;28;19922;-85
2024/03/16 12:46:08;;;;;;;;;;;;;;;7.22;100.00;100044.59;5013106;28;20382;-86
2024/03/16 12:48:33;;;;;;;;;;;;;;;7.25;100.00;100049.78;5013278;28;19918;-81
2024/03/16 12:50:58;;;;;;;;;;;;;;;7.24;100.00;100045.41;5012097;28;19917;-86
2024/03/16 12:53:24;;;;;;;;;;;;;;;7.25;100.00;100050.63;5012957;28;20332;-79
2024/03/16 12:59:13;;;;;;;;;;;;;;;7.25;100.00;100045.38;4914770;29;19923;-84
2024/03/16 13:01:38;;;;;;;;;;;;;;;7.32;100.00;100040.81;4995246;28;20320;-79
2024/03/16 13:04:04;;;;;;;;;;;;;;;7.23;100.00;100035.78;5012715;28;19996;-81
2024/03/16 13:06:29;;;;;;;;;;;;;;;7.24;100.00;100043.66;5012586;28;20069;-85
2024/03/16 13:08:55;;;;;;;;;;;;;;;7.23;100.00;100039.28;5012548;28;20008;-80
2024/03/16 13:11:25;;;;;;;;;;;;;;;7.24;100.00;100038.38;5011230;28;20261;-81
2024/03/16 13:13:50;;;;;;;;;;;;;;;7.24;100.00;100041.03;5012791;28;20387;-85
2024/03/16 13:16:16;;;;;;;;;;;;;;;7.20;100.00;100041.13;5012664;28;19925;-82
2024/03/16 13:18:45;;;;;;;;;;;;;;;7.20;100.00;100041.13;5012259;28;19987;-94
2024/03/16 13:21:11;;;;;;;;;;;;;;;7.21;100.00;100043.72;5012465;28;19918;-84
2024/03/16 13:23:37;;;;;;;;;;;;;;;7.17;100.00;100039.44;5012296;28;19921;-81
2024/03/16 13:26:05;;;;;;;;;;;;;;;7.19;100.00;100049.94;4993466;28;20032;-79
2024/03/16 13:28:30;;;;;;;;;;;;;;;7.23;100.00;100048.97;5012309;28;20477;-83
2024/03/16 13:30:55;;;;;;;;;;;;;;;7.21;100.00;100043.72;5012593;28;20015;-80
2024/03/16 13:33:21;;;;;;;;;;;;;;;7.21;100.00;100048.13;5012057;28;20372;-85
2024/03/16 13:35:46;;;;;;;;;;;;;;;7.23;100.00;100054.25;5012503;28;20455;-81
2024/03/16 13:38:11;;;;;;;;;;;;;;;7.27;100.00;100047.97;5012240;28;19913;-83
2024/03/16 13:40:37;;;;;;;;;;;;;;;7.18;100.00;100053.47;5010968;28;20012;-87
2024/03/16 13:43:02;;;;;;;;;;;;;;;7.19;100.00;100049.94;4994570;28;20399;-86
2024/03/16 13:45:35;;;;;;;;;;;;;;;7.24;100.00;100046.28;4994649;28;19925;-89
2024/03/16 13:48:00;;;;;;;;;;;;;;;7.31;100.00;100052.28;5011969;28;19928;-84
2024/03/16 13:50:25;;;;;;;;;;;;;;;7.22;100.00;100060.41;4994013;28;19917;-85
2024/03/16 13:52:50;;;;;;;;;;;;;;;7.24;100.00;100056.84;4994575;28;19971;-84
2024/03/16 13:55:21;;;;;;;;;;;;;;;7.27;100.00;100059.41;5010988;28;19918;-82
2024/03/16 13:57:46;;;;;;;;;;;;;;;7.27;100.00;100055.88;5011430;28;19922;-84
2024/03/16 14:00:12;;;;;;;;;;;;;;;7.25;100.00;100062.97;5012199;28;20288;-84
2024/03/16 14:02:37;;;;;;;;;;;;;;;7.24;100.00;100058.59;5015434;28;20447;-81
2024/03/16 14:05:06;;;;;;;;;;;;;;;7.26;100.00;100068.19;5016043;28;20578;-89
2024/03/16 14:07:31;;;;;;;;;;;;;;;7.31;100.00;100068.09;4998872;28;19922;-83
2024/03/16 14:10:00;;;;;;;;;;;;;;;7.32;100.00;100061.03;5015337;28;20024;-84
2024/03/16 14:12:26;;;;;;;;;;;;;;;7.26;100.00;100062.94;4997478;28;19922;-82
2024/03/16 14:14:55;;;;;;;;;;;;;;;7.26;100.00;100062.94;4998352;28;19924;-80
2024/03/16 14:17:21;;;;;;;;;;;;;;;7.23;100.00;100063.00;4998219;28;19971;-79
2024/03/16 14:19:53;;;;;;;;;;;;;;;7.20;100.00;100059.59;5016100;28;19987;-87
2024/03/16 14:22:20;;;;;;;;;;;;;;;7.23;100.00;100063.00;5015257;28;19917;-79
2024/03/16 14:24:48;;;;;;;;;;;;;;;7.32;100.00;100066.31;5015519;28;19928;-80
2024/03/16 14:27:14;;;;;;;;;;;;;;;7.30;100.00;100068.97;5014431;28;19987;-84
2024/03/16 14:29:39;;;;;;;;;;;;;;;7.28;100.00;100076.94;4998164;28;19976;-87
2024/03/16 14:32:04;;;;;;;;;;;;;;;7.29;100.00;100077.78;5022348;28;19917;-84
2024/03/16 14:34:30;;;;;;;;;;;;;;;7.29;100.00;100093.59;5015727;28;19921;-87
2024/03/16 14:36:55;;;;;;;;;;;;;;;7.23;100.00;100088.50;5015515;28;19926;-86
2024/03/16 14:39:20;;;;;;;;;;;;;;;7.28;100.00;100097.16;4997841;28;19967;-87
2024/03/16 14:41:46;;;;;;;;;;;;;;;7.33;100.00;100094.41;5013997;28;19922;-81
2024/03/16 14:44:11;;;;;;;;;;;;;;;7.32;100.00;100098.78;5015391;28;19925;-80
2024/03/16 14:46:36;;;;;;;;;;;;;;;7.22;100.00;100097.31;5015433;28;20009;-86
2024/03/16 14:49:03;;;;;;;;;;;;;;;7.20;100.00;100107.03;5015316;28;19921;-81
2024/03/16 14:51:28;;;;;;;;;;;;;;;7.21;100.00;100100.81;5015162;28;19918;-80
2024/03/16 14:53:53;;;;;;;;;;;;;;;7.24;100.00;100106.91;5015163;28;19923;-85
2024/03/16 14:56:18;;;;;;;;;;;;;;;7.64;100.00;100108.56;5014248;28;19917;-83
2024/03/16 14:58:44;;;;;;;;;;;;;;;7.45;100.00;100105.50;5015071;28;20017;-84
2024/03/16 15:01:09;;;;;;;;;;;;;;;7.33;100.00;100100.53;5015134;28;19924;-84
2024/03/16 15:03:34;;;;;;;;;;;;;;;7.27;100.00;100106.84;5015146;28;20376;-83
2024/03/16 15:05:59;;;;;;;;;;;;;;;7.23;100.00;100107.81;5015032;28;19913;-82
2024/03/16 15:08:25;;;;;;;;;;;;;;;7.26;100.00;100110.38;5015101;28;20292;-84
2024/03/16 15:10:50;;;;;;;;;;;;;;;7.29;100.00;100109.41;5013641;28;20345;-84
2024/03/16 15:13:15;;;;;;;;;;;;;;;7.25;100.00;100107.78;5014189;28;20348;-80
2024/03/16 15:15:48;;;;;;;;;;;;;;;7.23;100.00;100104.31;5014749;28;19917;-87
2024/03/16 15:18:14;;;;;;;;;;;;;;;7.22;100.00;100108.69;4997278;28;20359;-79
2024/03/16 15:20:40;;;;;;;;;;;;;;;7.19;100.00;100111.41;5014715;28;19957;-84
2024/03/16 15:23:06;;;;;;;;;;;;;;;7.21;100.00;100121.91;5014778;28;19948;-85
2024/03/16 15:25:39;;;;;;;;;;;;;;;7.18;100.00;100122.88;5013260;28;19913;-85
2024/03/16 15:28:12;;;;;;;;;;;;;;;7.15;100.00;100117.66;4996852;28;19922;-92
2024/03/16 15:30:37;;;;;;;;;;;;;;;7.13;100.00;100131.78;5020843;28;19964;-82
2024/03/16 15:33:02;;;;;;;;;;;;;;;7.12;100.00;100125.66;5013647;28;19959;-79
2024/03/16 15:35:28;;;;;;;;;;;;;;;7.17;100.00;100136.09;5014539;28;19924;-80
2024/03/16 15:37:53;;;;;;;;;;;;;;;7.11;100.00;100129.16;4995965;28;19979;-83
2024/03/16 15:40:19;;;;;;;;;;;;;;;7.12;100.00;100132.69;5013029;28;19921;-80
2024/03/16 15:42:46;;;;;;;;;;;;;;;7.11;100.00;100136.22;5014406;28;19918;-79
2024/03/16 15:45:13;;;;;;;;;;;;;;;7.12;100.00;100137.97;5014345;28;20349;-80
2024/03/16 15:47:38;;;;;;;;;;;;;;;7.12;100.00;100132.69;5014335;28;19918;-79
2024/03/16 15:50:03;;;;;;;;;;;;;;;7.08;100.00;100135.41;4996668;28;19917;-79
2024/03/16 15:52:29;;;;;;;;;;;;;;;7.14;100.00;100146.69;4996631;28;19922;-79
2024/03/16 15:54:55;;;;;;;;;;;;;;;7.13;100.00;100152.84;5014142;28;19918;-80
2024/03/16 15:57:20;;;;;;;;;;;;;;;7.14;100.00;100152.81;5012495;28;19928;-81
2024/03/16 15:59:53;;;;;;;;;;;;;;;7.16;100.00;100151.00;5013949;28;19926;-91
2024/03/16 16:02:19;;;;;;;;;;;;;;;7.06;100.00;100150.34;4995778;28;20385;-85
2024/03/16 16:04:44;;;;;;;;;;;;;;;7.05;100.00;100159.19;5013992;28;19917;-81
2024/03/16 16:07:11;;;;;;;;;;;;;;;7.09;100.00;100159.97;4996196;28;20384;-82
2024/03/16 16:09:37;;;;;;;;;;;;;;;7.06;100.00;100158.25;5013175;28;19924;-85
2024/03/16 16:12:02;;;;;;;;;;;;;;;7.14;100.00;100162.50;5012410;28;19918;-84
2024/03/16 16:14:27;;;;;;;;;;;;;;;7.12;100.00;100159.03;5013757;28;19964;-84
2024/03/16 16:16:52;;;;;;;;;;;;;;;7.12;100.00;100167.81;5013592;28;20016;-83
2024/03/16 16:19:18;;;;;;;;;;;;;;;7.09;100.00;100165.25;5013565;28;19960;-83
2024/03/16 16:21:43;;;;;;;;;;;;;;;7.19;100.00;100171.16;5013498;28;19924;-84
2024/03/16 16:24:09;;;;;;;;;;;;;;;7.16;100.00;100171.22;4995841;28;19928;-84
2024/03/16 16:26:45;;;;;;;;;;;;;;;7.11;100.00;100176.59;5012006;28;19952;-90
2024/03/16 16:29:10;;;;;;;;;;;;;;;7.14;100.00;100168.63;5013242;28;19922;-83
2024/03/16 16:31:35;;;;;;;;;;;;;;;7.13;100.00;100177.44;5013494;28;19929;-81
2024/03/16 16:34:04;;;;;;;;;;;;;;;7.13;100.00;100181.84;5013365;28;19925;-84
2024/03/16 16:36:30;;;;;;;;;;;;;;;7.16;100.00;100187.91;5012819;28;20284;-85
2024/03/16 16:38:55;;;;;;;;;;;;;;;7.13;100.00;100193.25;5013318;28;20051;-80
2024/03/16 16:41:20;;;;;;;;;;;;;;;7.14;100.00;100188.84;5012086;28;20404;-85
2024/03/16 16:43:45;;;;;;;;;;;;;;;7.15;100.00;100190.56;5013280;28;20275;-82
2024/03/16 16:46:10;;;;;;;;;;;;;;;7.11;100.00;100195.06;5013222;28;19922;-82
2024/03/16 16:48:39;;;;;;;;;;;;;;;7.06;100.00;100187.25;5013298;28;19925;-93
2024/03/16 16:51:05;;;;;;;;;;;;;;;7.12;100.00;100188.03;5012712;28;20024;-83
2024/03/16 16:53:31;;;;;;;;;;;;;;;7.11;100.00;100195.06;5013092;28;19928;-81
2024/03/16 16:55:56;;;;;;;;;;;;;;;7.13;100.00;100189.75;5011771;28;20012;-86
2024/03/16 16:58:22;;;;;;;;;;;;;;;7.10;100.00;100190.69;5012874;28;20391;-86
2024/03/16 17:00:47;;;;;;;;;;;;;;;7.09;100.00;100188.97;4995784;28;19917;-84
2024/03/16 17:03:12;;;;;;;;;;;;;;;7.06;100.00;100196.94;5012919;28;19929;-81
2024/03/16 17:05:37;;;;;;;;;;;;;;;7.08;100.00;100201.28;5013278;28;20292;-87
2024/03/16 17:08:03;;;;;;;;;;;;;;;7.05;100.00;100198.72;5013350;28;20327;-83
2024/03/16 17:10:28;;;;;;;;;;;;;;;7.00;100.00;100197.91;4994577;28;20265;-83
2024/03/16 17:15:59;;;;;;;;;;;;;;;7.06;100.00;100203.06;5009174;23;20289;-96
2024/03/16 17:18:24;;;;;;;;;;;;;;;7.05;100.00;100206.63;4995299;28;19928;-86
2024/03/16 17:20:52;;;;;;;;;;;;;;;7.07;100.00;100203.94;4975610;28;19918;-85
2024/03/16 17:23:45;;;;;;;;;;;;;;;7.07;100.00;100207.44;5131246;23;19961;-86
2024/03/16 17:26:10;;;;;;;;;;;;;;;7.08;100.00;100214.44;4974141;28;19918;-82
2024/03/16 17:28:36;;;;;;;;;;;;;;;7.02;100.00;100216.31;4989902;28;19924;-86
2024/03/16 17:31:01;;;;;;;;;;;;;;;7.07;100.00;100222.38;4976016;28;19918;-86
2024/03/16 17:33:26;;;;;;;;;;;;;;;7.04;100.00;100214.56;4992929;28;19918;-83
2024/03/16 17:35:51;;;;;;;;;;;;;;;7.08;100.00;100222.34;4992485;28;20432;-81
2024/03/16 17:38:22;;;;;;;;;;;;;;;7.05;100.00;100217.16;4992475;28;19941;-92
2024/03/16 17:40:47;;;;;;;;;;;;;;;7.07;100.00;100220.63;5088048;23;19930;-83
2024/03/16 17:43:15;;;;;;;;;;;;;;;7.09;100.00;100217.94;4975153;28;19980;-87
2024/03/16 17:45:40;;;;;;;;;;;;;;;7.06;100.00;100223.28;4988246;28;19960;-81
2024/03/16 17:48:05;;;;;;;;;;;;;;;7.03;100.00;100233.88;4982584;28;19961;-82
2024/03/16 17:50:31;;;;;;;;;;;;;;;7.06;100.00;100224.13;4982781;28;19917;-84
2024/03/16 17:52:56;;;;;;;;;;;;;;;7.02;100.00;100237.41;4983194;28;19972;-83
2024/03/16 17:55:21;;;;;;;;;;;;;;;7.03;100.00;100232.09;4981556;28;19922;-86
2024/03/16 17:57:46;;;;;;;;;;;;;;;7.03;100.00;100240.00;4985148;28;19968;-82
2024/03/16 18:00:17;;;;;;;;;;;;;;;7.04;100.00;100231.22;4985208;28;19949;-82
2024/03/16 18:02:42;;;;;;;;;;;;;;;7.04;100.00;100247.03;4982336;28;19918;-85
2024/03/16 18:05:08;;;;;;;;;;;;;;;7.00;100.00;100240.06;4986402;28;20274;-82
2024/03/16 18:07:33;;;;;;;;;;;;;;;7.04;100.00;100247.03;4980921;28;20334;-84
2024/03/16 18:09:58;;;;;;;;;;;;;;;7.04;100.00;100252.28;4982598;28;20009;-84
2024/03/16 18:12:23;;;;;;;;;;;;;;;7.02;100.00;100261.13;4964973;28;19922;-84
2024/03/16 18:14:50;;;;;;;;;;;;;;;7.02;100.00;100267.28;4965009;28;20361;-83
2024/03/16 18:17:16;;;;;;;;;;;;;;;7.05;100.00;100263.69;4980923;28;20017;-80
2024/03/16 18:19:41;;;;;;;;;;;;;;;7.02;100.00;100263.75;4985728;28;20451;-85
2024/03/16 18:22:09;;;;;;;;;;;;;;;7.09;100.00;100268.00;4992152;28;19933;-85
2024/03/16 18:24:34;;;;;;;;;;;;;;;7.05;100.00;100263.69;4992207;28;19922;-78
2024/03/16 18:26:59;;;;;;;;;;;;;;;7.09;100.00;100265.38;4984997;28;19929;-81
2024/03/16 18:29:25;;;;;;;;;;;;;;;7.04;100.00;100275.16;4982112;28;20376;-81
2024/03/16 18:31:50;;;;;;;;;;;;;;;7.02;100.00;100275.19;4982169;28;19921;-88
2024/03/16 18:34:16;;;;;;;;;;;;;;;7.03;100.00;100282.16;4984317;28;19924;-84
2024/03/16 18:36:41;;;;;;;;;;;;;;;7.02;100.00;100287.47;4974668;28;19922;-83
2024/03/16 18:39:09;;;;;;;;;;;;;;;7.03;100.00;100291.84;4984773;28;20010;-85
2024/03/16 18:41:37;;;;;;;;;;;;;;;7.07;100.00;100291.75;4988140;28;19929;-88